This is the latest recevied weather packets stored in our database for station/object K7SPS-10. If no packets are shown the sender has not sent any weather packets the latest 10 day(s).
| Time | Temp. | Humidity | Pressure | Rain* | Wind** | Luminosity | Snow |
|---|---|---|---|---|---|---|---|
| 1777736055 | 13.33° C | 65% | 1018.4 hPa | 0 mm | - | 381 W/m² | - |
| 1777735752 | 13.33° C | 67% | 1018.3 hPa | 0 mm | - | 348 W/m² | - |
| 1777735449 | 12.22° C | 71% | 1018.4 hPa | 0 mm | - | 230 W/m² | - |
| 1777735147 | 11.67° C | 73% | 1018.3 hPa | 0 mm | - | 141 W/m² | - |
| 1777734843 | 11.11° C | 74% | 1018.1 hPa | 0 mm | - | 126 W/m² | - |
| 1777734541 | 10.56° C | 76% | 1018.3 hPa | 0 mm | - | 93 W/m² | - |
| 1777734237 | 10.56° C | 77% | 1018.3 hPa | 0 mm | - | 93 W/m² | - |
| 1777733933 | 10.56° C | 78% | 1018.4 hPa | 0 mm | - | 82 W/m² | - |
| 1777733630 | 10.56° C | 75% | 1018.2 hPa | 0 mm | - | 86 W/m² | - |
| 1777733326 | 10° C | 76% | 1018.1 hPa | 0 mm | - | 152 W/m² | - |
| 1777733024 | 10° C | 76% | 1018.1 hPa | 0 mm | - | 107 W/m² | - |
| 1777732719 | 8.89° C | 78% | 1018 hPa | 0 mm | - | 97 W/m² | - |
| 1777732417 | 8.89° C | 77% | 1018.1 hPa | 0 mm | - | 91 W/m² | - |
| 1777732115 | 8.33° C | 78% | 1018.2 hPa | 0 mm | - | 103 W/m² | - |
| 1777731811 | 8.33° C | 79% | 1018 hPa | 0 mm | - | 91 W/m² | - |
| 1777731508 | 8.89° C | 79% | 1017.9 hPa | 0 mm | - | 85 W/m² | - |
| 1777731207 | 8.89° C | 82% | 1018.1 hPa | 0 mm | - | 86 W/m² | - |
| 1777730903 | 8.89° C | 81% | 1018 hPa | 0 mm | - | 85 W/m² | - |
| 1777730601 | 8.33° C | 80% | 1017.9 hPa | 0 mm | - | 76 W/m² | - |
| 1777730297 | 8.33° C | 81% | 1017.8 hPa | 0 mm | - | 71 W/m² | - |
| 1777729994 | 8.33° C | 79% | 1017.9 hPa | 0 mm | - | 69 W/m² | - |
| 1777729690 | 7.78° C | 81% | 1017.8 hPa | 0 mm | - | 62 W/m² | - |
| 1777729387 | 7.22° C | 83% | 1017.8 hPa | 0 mm | - | 60 W/m² | - |
| 1777729083 | 6.67° C | 84% | 1017.7 hPa | 0 mm | - | 53 W/m² | - |
| 1777728780 | 6.11° C | 86% | 1017.5 hPa | 0 mm | - | 48 W/m² | - |
* Rain latest hour (hover to see other rain measurements)
** Current wind speed in m/s (hover to see current wind gust speed)